sensor_id;sensor_type;location;lat;lon;timestamp;P1;durP1;ratioP1;P2;durP2;ratioP2
5460;SDS011;2753;49.196;8.286;2023-03-17T00:01:49;6.83;;;4.23;;
5460;SDS011;2753;49.196;8.286;2023-03-17T00:04:18;6.83;;;4.40;;
5460;SDS011;2753;49.196;8.286;2023-03-17T00:06:44;8.17;;;4.80;;
5460;SDS011;2753;49.196;8.286;2023-03-17T00:09:14;6.03;;;3.90;;
5460;SDS011;2753;49.196;8.286;2023-03-17T00:11:41;4.27;;;3.83;;
5460;SDS011;2753;49.196;8.286;2023-03-17T00:14:07;6.10;;;4.33;;
5460;SDS011;2753;49.196;8.286;2023-03-17T00:16:35;13.60;;;5.03;;
5460;SDS011;2753;49.196;8.286;2023-03-17T00:19:02;13.33;;;4.40;;
5460;SDS011;2753;49.196;8.286;2023-03-17T00:21:29;9.63;;;5.00;;
5460;SDS011;2753;49.196;8.286;2023-03-17T00:23:55;5.30;;;4.60;;
5460;SDS011;2753;49.196;8.286;2023-03-17T00:26:22;6.87;;;4.90;;
5460;SDS011;2753;49.196;8.286;2023-03-17T00:28:49;9.60;;;5.43;;
5460;SDS011;2753;49.196;8.286;2023-03-17T00:31:19;7.70;;;5.30;;
5460;SDS011;2753;49.196;8.286;2023-03-17T00:33:46;8.27;;;5.77;;
5460;SDS011;2753;49.196;8.286;2023-03-17T00:36:17;9.67;;;5.83;;
5460;SDS011;2753;49.196;8.286;2023-03-17T00:38:45;10.17;;;5.10;;
5460;SDS011;2753;49.196;8.286;2023-03-17T00:41:11;8.47;;;5.67;;
5460;SDS011;2753;49.196;8.286;2023-03-17T00:43:38;8.13;;;5.40;;
5460;SDS011;2753;49.196;8.286;2023-03-17T00:46:08;8.33;;;4.97;;
5460;SDS011;2753;49.196;8.286;2023-03-17T00:48:37;9.57;;;5.03;;
5460;SDS011;2753;49.196;8.286;2023-03-17T00:51:03;6.13;;;4.30;;
5460;SDS011;2753;49.196;8.286;2023-03-17T00:53:30;9.80;;;6.23;;
5460;SDS011;2753;49.196;8.286;2023-03-17T00:55:56;8.40;;;5.30;;
5460;SDS011;2753;49.196;8.286;2023-03-17T00:58:32;7.80;;;5.27;;
5460;SDS011;2753;49.196;8.286;2023-03-17T01:00:59;5.87;;;4.93;;
5460;SDS011;2753;49.196;8.286;2023-03-17T01:03:25;10.23;;;5.20;;
5460;SDS011;2753;49.196;8.286;2023-03-17T01:05:52;7.60;;;5.27;;
5460;SDS011;2753;49.196;8.286;2023-03-17T01:08:20;9.97;;;6.17;;
5460;SDS011;2753;49.196;8.286;2023-03-17T01:10:47;11.37;;;6.77;;
5460;SDS011;2753;49.196;8.286;2023-03-17T01:13:13;9.80;;;6.60;;
5460;SDS011;2753;49.196;8.286;2023-03-17T01:15:40;8.73;;;6.00;;
5460;SDS011;2753;49.196;8.286;2023-03-17T01:18:11;7.50;;;4.60;;
5460;SDS011;2753;49.196;8.286;2023-03-17T01:20:37;8.97;;;5.37;;
5460;SDS011;2753;49.196;8.286;2023-03-17T01:23:03;7.50;;;5.00;;
5460;SDS011;2753;49.196;8.286;2023-03-17T01:25:30;7.67;;;4.50;;
5460;SDS011;2753;49.196;8.286;2023-03-17T01:27:57;6.23;;;5.00;;
5460;SDS011;2753;49.196;8.286;2023-03-17T01:30:27;9.37;;;5.73;;
5460;SDS011;2753;49.196;8.286;2023-03-17T01:32:54;9.67;;;5.40;;
5460;SDS011;2753;49.196;8.286;2023-03-17T01:35:22;10.53;;;5.87;;
5460;SDS011;2753;49.196;8.286;2023-03-17T01:37:51;9.90;;;6.37;;
5460;SDS011;2753;49.196;8.286;2023-03-17T01:40:22;8.97;;;5.60;;
5460;SDS011;2753;49.196;8.286;2023-03-17T01:42:53;7.60;;;5.63;;
5460;SDS011;2753;49.196;8.286;2023-03-17T01:48:04;10.27;;;6.37;;
5460;SDS011;2753;49.196;8.286;2023-03-17T01:50:30;13.53;;;7.53;;
5460;SDS011;2753;49.196;8.286;2023-03-17T01:52:56;12.70;;;7.50;;
5460;SDS011;2753;49.196;8.286;2023-03-17T01:55:23;10.47;;;5.87;;
5460;SDS011;2753;49.196;8.286;2023-03-17T01:57:50;10.60;;;5.77;;
5460;SDS011;2753;49.196;8.286;2023-03-17T02:00:18;9.07;;;5.10;;
5460;SDS011;2753;49.196;8.286;2023-03-17T02:02:46;7.70;;;5.60;;
5460;SDS011;2753;49.196;8.286;2023-03-17T02:05:13;7.60;;;5.50;;
5460;SDS011;2753;49.196;8.286;2023-03-17T02:07:41;8.77;;;4.73;;
5460;SDS011;2753;49.196;8.286;2023-03-17T02:10:07;11.97;;;5.83;;
5460;SDS011;2753;49.196;8.286;2023-03-17T02:12:34;15.03;;;6.23;;
5460;SDS011;2753;49.196;8.286;2023-03-17T02:15:00;17.73;;;6.17;;
5460;SDS011;2753;49.196;8.286;2023-03-17T02:17:27;18.60;;;9.30;;
5460;SDS011;2753;49.196;8.286;2023-03-17T02:19:54;17.67;;;9.10;;
5460;SDS011;2753;49.196;8.286;2023-03-17T02:22:20;15.90;;;8.10;;
5460;SDS011;2753;49.196;8.286;2023-03-17T02:24:50;12.47;;;7.33;;
5460;SDS011;2753;49.196;8.286;2023-03-17T02:27:17;14.03;;;7.50;;
5460;SDS011;2753;49.196;8.286;2023-03-17T02:29:45;8.70;;;5.50;;
5460;SDS011;2753;49.196;8.286;2023-03-17T02:32:14;9.43;;;6.20;;
5460;SDS011;2753;49.196;8.286;2023-03-17T02:34:41;8.97;;;6.07;;
5460;SDS011;2753;49.196;8.286;2023-03-17T02:37:07;12.40;;;5.30;;
5460;SDS011;2753;49.196;8.286;2023-03-17T02:39:34;7.50;;;4.40;;
5460;SDS011;2753;49.196;8.286;2023-03-17T02:42:00;7.03;;;5.10;;
5460;SDS011;2753;49.196;8.286;2023-03-17T02:44:26;5.97;;;4.63;;
5460;SDS011;2753;49.196;8.286;2023-03-17T02:46:52;7.30;;;4.90;;
5460;SDS011;2753;49.196;8.286;2023-03-17T02:49:18;6.50;;;4.37;;
5460;SDS011;2753;49.196;8.286;2023-03-17T02:51:44;6.63;;;4.73;;
5460;SDS011;2753;49.196;8.286;2023-03-17T02:54:11;5.23;;;4.73;;
5460;SDS011;2753;49.196;8.286;2023-03-17T02:56:37;6.27;;;4.27;;
5460;SDS011;2753;49.196;8.286;2023-03-17T02:59:03;8.50;;;4.50;;
5460;SDS011;2753;49.196;8.286;2023-03-17T03:01:29;5.30;;;4.20;;
5460;SDS011;2753;49.196;8.286;2023-03-17T03:03:56;5.77;;;4.37;;
5460;SDS011;2753;49.196;8.286;2023-03-17T03:06:22;34.03;;;15.30;;
5460;SDS011;2753;49.196;8.286;2023-03-17T03:08:48;46.47;;;19.80;;
5460;SDS011;2753;49.196;8.286;2023-03-17T03:11:14;15.27;;;8.57;;
5460;SDS011;2753;49.196;8.286;2023-03-17T03:13:41;6.27;;;5.10;;
5460;SDS011;2753;49.196;8.286;2023-03-17T03:16:07;9.33;;;5.93;;
5460;SDS011;2753;49.196;8.286;2023-03-17T03:18:33;8.17;;;5.13;;
5460;SDS011;2753;49.196;8.286;2023-03-17T03:20:59;8.93;;;4.77;;
5460;SDS011;2753;49.196;8.286;2023-03-17T03:23:26;8.30;;;4.97;;
5460;SDS011;2753;49.196;8.286;2023-03-17T03:25:52;6.60;;;4.70;;
5460;SDS011;2753;49.196;8.286;2023-03-17T03:28:18;8.17;;;5.70;;
5460;SDS011;2753;49.196;8.286;2023-03-17T03:30:44;8.37;;;4.40;;
5460;SDS011;2753;49.196;8.286;2023-03-17T03:33:11;7.70;;;5.27;;
5460;SDS011;2753;49.196;8.286;2023-03-17T03:35:37;8.10;;;5.10;;
5460;SDS011;2753;49.196;8.286;2023-03-17T03:38:04;9.60;;;5.00;;
5460;SDS011;2753;49.196;8.286;2023-03-17T03:40:30;10.03;;;5.87;;
5460;SDS011;2753;49.196;8.286;2023-03-17T03:42:56;7.37;;;4.60;;
5460;SDS011;2753;49.196;8.286;2023-03-17T03:45:22;7.03;;;4.83;;
5460;SDS011;2753;49.196;8.286;2023-03-17T03:47:48;14.37;;;7.53;;
5460;SDS011;2753;49.196;8.286;2023-03-17T03:50:14;13.07;;;6.37;;
5460;SDS011;2753;49.196;8.286;2023-03-17T03:52:40;9.53;;;5.90;;
5460;SDS011;2753;49.196;8.286;2023-03-17T03:55:07;14.00;;;5.47;;
5460;SDS011;2753;49.196;8.286;2023-03-17T03:57:33;7.23;;;5.33;;
5460;SDS011;2753;49.196;8.286;2023-03-17T03:59:59;10.03;;;4.90;;
5460;SDS011;2753;49.196;8.286;2023-03-17T04:02:25;6.93;;;5.13;;
5460;SDS011;2753;49.196;8.286;2023-03-17T04:04:51;12.27;;;4.43;;
5460;SDS011;2753;49.196;8.286;2023-03-17T04:07:18;8.03;;;4.87;;
5460;SDS011;2753;49.196;8.286;2023-03-17T04:09:45;11.07;;;6.80;;
5460;SDS011;2753;49.196;8.286;2023-03-17T04:12:13;10.90;;;6.50;;
5460;SDS011;2753;49.196;8.286;2023-03-17T04:14:39;10.03;;;5.97;;
5460;SDS011;2753;49.196;8.286;2023-03-17T04:17:06;9.20;;;5.93;;
5460;SDS011;2753;49.196;8.286;2023-03-17T04:19:33;12.63;;;5.80;;
5460;SDS011;2753;49.196;8.286;2023-03-17T04:21:59;10.27;;;6.87;;
5460;SDS011;2753;49.196;8.286;2023-03-17T04:24:25;10.67;;;7.00;;
5460;SDS011;2753;49.196;8.286;2023-03-17T04:26:52;12.80;;;7.37;;
5460;SDS011;2753;49.196;8.286;2023-03-17T04:29:18;14.30;;;8.70;;
5460;SDS011;2753;49.196;8.286;2023-03-17T04:31:45;13.70;;;8.50;;
5460;SDS011;2753;49.196;8.286;2023-03-17T04:34:16;12.50;;;7.27;;
5460;SDS011;2753;49.196;8.286;2023-03-17T04:36:43;7.40;;;6.50;;
5460;SDS011;2753;49.196;8.286;2023-03-17T04:39:09;6.87;;;5.70;;
5460;SDS011;2753;49.196;8.286;2023-03-17T04:41:35;9.47;;;6.50;;
5460;SDS011;2753;49.196;8.286;2023-03-17T04:44:01;9.57;;;5.43;;
5460;SDS011;2753;49.196;8.286;2023-03-17T04:46:27;8.27;;;5.47;;
5460;SDS011;2753;49.196;8.286;2023-03-17T04:48:54;11.10;;;6.03;;
5460;SDS011;2753;49.196;8.286;2023-03-17T04:51:20;8.40;;;5.60;;
5460;SDS011;2753;49.196;8.286;2023-03-17T04:53:46;13.53;;;7.20;;
5460;SDS011;2753;49.196;8.286;2023-03-17T04:56:12;10.97;;;5.07;;
5460;SDS011;2753;49.196;8.286;2023-03-17T04:58:39;8.67;;;4.87;;
5460;SDS011;2753;49.196;8.286;2023-03-17T05:01:05;7.20;;;5.33;;
5460;SDS011;2753;49.196;8.286;2023-03-17T05:03:33;9.40;;;5.43;;
5460;SDS011;2753;49.196;8.286;2023-03-17T05:05:59;9.97;;;5.83;;
5460;SDS011;2753;49.196;8.286;2023-03-17T05:08:26;8.90;;;4.73;;
5460;SDS011;2753;49.196;8.286;2023-03-17T05:10:56;12.80;;;5.43;;
5460;SDS011;2753;49.196;8.286;2023-03-17T05:13:23;10.83;;;5.13;;
5460;SDS011;2753;49.196;8.286;2023-03-17T05:15:50;8.47;;;5.27;;
5460;SDS011;2753;49.196;8.286;2023-03-17T05:18:16;6.73;;;4.43;;
5460;SDS011;2753;49.196;8.286;2023-03-17T05:20:43;7.57;;;5.27;;
5460;SDS011;2753;49.196;8.286;2023-03-17T05:23:09;10.57;;;6.10;;
5460;SDS011;2753;49.196;8.286;2023-03-17T05:25:35;8.30;;;6.27;;
5460;SDS011;2753;49.196;8.286;2023-03-17T05:28:01;13.00;;;5.67;;
5460;SDS011;2753;49.196;8.286;2023-03-17T05:30:27;15.13;;;6.67;;
5460;SDS011;2753;49.196;8.286;2023-03-17T05:32:54;14.60;;;7.93;;
5460;SDS011;2753;49.196;8.286;2023-03-17T05:35:20;12.93;;;5.17;;
5460;SDS011;2753;49.196;8.286;2023-03-17T05:37:46;12.83;;;6.07;;
5460;SDS011;2753;49.196;8.286;2023-03-17T05:40:12;10.30;;;6.70;;
5460;SDS011;2753;49.196;8.286;2023-03-17T05:45:42;11.23;;;6.30;;
5460;SDS011;2753;49.196;8.286;2023-03-17T05:48:09;11.83;;;6.03;;
5460;SDS011;2753;49.196;8.286;2023-03-17T05:50:36;12.03;;;6.87;;
5460;SDS011;2753;49.196;8.286;2023-03-17T05:53:02;15.50;;;8.27;;
5460;SDS011;2753;49.196;8.286;2023-03-17T05:55:28;11.63;;;7.23;;
5460;SDS011;2753;49.196;8.286;2023-03-17T05:57:54;11.93;;;7.00;;
5460;SDS011;2753;49.196;8.286;2023-03-17T06:00:20;8.63;;;6.30;;
5460;SDS011;2753;49.196;8.286;2023-03-17T06:02:47;10.73;;;7.63;;
5460;SDS011;2753;49.196;8.286;2023-03-17T06:05:13;6.77;;;6.07;;
5460;SDS011;2753;49.196;8.286;2023-03-17T06:07:39;12.87;;;5.67;;
5460;SDS011;2753;49.196;8.286;2023-03-17T06:10:06;5.83;;;5.23;;
5460;SDS011;2753;49.196;8.286;2023-03-17T06:12:32;8.33;;;5.40;;
5460;SDS011;2753;49.196;8.286;2023-03-17T06:14:58;6.73;;;4.70;;
5460;SDS011;2753;49.196;8.286;2023-03-17T06:17:24;13.17;;;5.67;;
5460;SDS011;2753;49.196;8.286;2023-03-17T06:19:50;9.23;;;6.43;;
5460;SDS011;2753;49.196;8.286;2023-03-17T06:22:15;10.43;;;6.10;;
5460;SDS011;2753;49.196;8.286;2023-03-17T06:24:41;10.70;;;5.77;;
5460;SDS011;2753;49.196;8.286;2023-03-17T06:27:07;10.80;;;6.00;;
5460;SDS011;2753;49.196;8.286;2023-03-17T06:29:35;7.03;;;5.20;;
5460;SDS011;2753;49.196;8.286;2023-03-17T06:32:02;8.50;;;5.50;;
5460;SDS011;2753;49.196;8.286;2023-03-17T06:34:28;6.97;;;4.90;;
5460;SDS011;2753;49.196;8.286;2023-03-17T06:36:53;8.53;;;5.67;;
5460;SDS011;2753;49.196;8.286;2023-03-17T06:39:19;9.13;;;5.50;;
5460;SDS011;2753;49.196;8.286;2023-03-17T06:41:45;6.43;;;4.73;;
5460;SDS011;2753;49.196;8.286;2023-03-17T06:44:11;10.73;;;6.23;;
5460;SDS011;2753;49.196;8.286;2023-03-17T06:46:38;7.60;;;5.60;;
5460;SDS011;2753;49.196;8.286;2023-03-17T06:49:03;8.40;;;6.73;;
5460;SDS011;2753;49.196;8.286;2023-03-17T06:51:29;11.00;;;6.97;;
5460;SDS011;2753;49.196;8.286;2023-03-17T06:53:56;12.70;;;8.50;;
5460;SDS011;2753;49.196;8.286;2023-03-17T06:56:22;14.33;;;9.13;;
5460;SDS011;2753;49.196;8.286;2023-03-17T06:58:48;16.27;;;10.40;;
5460;SDS011;2753;49.196;8.286;2023-03-17T07:01:14;18.70;;;9.77;;
5460;SDS011;2753;49.196;8.286;2023-03-17T07:03:40;18.13;;;10.40;;
5460;SDS011;2753;49.196;8.286;2023-03-17T07:06:06;10.77;;;8.77;;
5460;SDS011;2753;49.196;8.286;2023-03-17T07:08:32;12.27;;;8.80;;
5460;SDS011;2753;49.196;8.286;2023-03-17T07:10:58;8.83;;;6.37;;
5460;SDS011;2753;49.196;8.286;2023-03-17T07:13:24;7.67;;;6.10;;
5460;SDS011;2753;49.196;8.286;2023-03-17T07:15:51;7.40;;;5.60;;
5460;SDS011;2753;49.196;8.286;2023-03-17T07:18:17;16.80;;;6.30;;
5460;SDS011;2753;49.196;8.286;2023-03-17T07:20:44;14.60;;;5.67;;
5460;SDS011;2753;49.196;8.286;2023-03-17T07:23:29;10.43;;;6.73;;
5460;SDS011;2753;49.196;8.286;2023-03-17T07:25:55;8.93;;;6.80;;
5460;SDS011;2753;49.196;8.286;2023-03-17T07:28:21;13.60;;;7.43;;
5460;SDS011;2753;49.196;8.286;2023-03-17T07:30:48;15.27;;;8.10;;
5460;SDS011;2753;49.196;8.286;2023-03-17T07:33:15;9.80;;;6.20;;
5460;SDS011;2753;49.196;8.286;2023-03-17T07:35:42;10.33;;;6.70;;
5460;SDS011;2753;49.196;8.286;2023-03-17T07:38:08;13.47;;;7.57;;
5460;SDS011;2753;49.196;8.286;2023-03-17T07:40:34;11.60;;;7.07;;
5460;SDS011;2753;49.196;8.286;2023-03-17T07:43:00;10.93;;;5.60;;
5460;SDS011;2753;49.196;8.286;2023-03-17T07:45:26;7.87;;;5.40;;
5460;SDS011;2753;49.196;8.286;2023-03-17T07:47:51;8.37;;;5.60;;
5460;SDS011;2753;49.196;8.286;2023-03-17T07:50:18;5.37;;;4.83;;
5460;SDS011;2753;49.196;8.286;2023-03-17T07:52:44;8.70;;;6.13;;
5460;SDS011;2753;49.196;8.286;2023-03-17T07:55:10;8.43;;;4.83;;
5460;SDS011;2753;49.196;8.286;2023-03-17T07:57:36;5.57;;;4.13;;
5460;SDS011;2753;49.196;8.286;2023-03-17T08:00:04;7.10;;;4.40;;
5460;SDS011;2753;49.196;8.286;2023-03-17T08:02:34;5.00;;;4.10;;
5460;SDS011;2753;49.196;8.286;2023-03-17T08:05:01;6.43;;;4.70;;
5460;SDS011;2753;49.196;8.286;2023-03-17T08:07:28;7.00;;;4.43;;
5460;SDS011;2753;49.196;8.286;2023-03-17T08:09:55;5.33;;;4.23;;
5460;SDS011;2753;49.196;8.286;2023-03-17T08:12:21;7.90;;;4.90;;
5460;SDS011;2753;49.196;8.286;2023-03-17T08:14:48;10.00;;;4.77;;
5460;SDS011;2753;49.196;8.286;2023-03-17T08:17:14;7.20;;;4.90;;
5460;SDS011;2753;49.196;8.286;2023-03-17T08:19:40;9.03;;;6.00;;
5460;SDS011;2753;49.196;8.286;2023-03-17T08:22:06;9.50;;;6.03;;
5460;SDS011;2753;49.196;8.286;2023-03-17T08:24:32;9.03;;;5.13;;
5460;SDS011;2753;49.196;8.286;2023-03-17T08:26:58;11.03;;;6.13;;
5460;SDS011;2753;49.196;8.286;2023-03-17T08:29:24;7.27;;;5.67;;
5460;SDS011;2753;49.196;8.286;2023-03-17T08:31:50;7.13;;;5.40;;
5460;SDS011;2753;49.196;8.286;2023-03-17T08:34:15;7.20;;;5.63;;
5460;SDS011;2753;49.196;8.286;2023-03-17T08:36:41;7.83;;;5.03;;
5460;SDS011;2753;49.196;8.286;2023-03-17T08:39:07;4.90;;;4.50;;
5460;SDS011;2753;49.196;8.286;2023-03-17T08:41:34;14.57;;;4.87;;
5460;SDS011;2753;49.196;8.286;2023-03-17T08:44:01;6.77;;;4.60;;
5460;SDS011;2753;49.196;8.286;2023-03-17T08:46:29;6.20;;;3.70;;
5460;SDS011;2753;49.196;8.286;2023-03-17T08:48:56;7.03;;;3.87;;
5460;SDS011;2753;49.196;8.286;2023-03-17T08:51:24;4.17;;;3.30;;
5460;SDS011;2753;49.196;8.286;2023-03-17T08:53:51;4.93;;;3.60;;
5460;SDS011;2753;49.196;8.286;2023-03-17T08:56:18;6.67;;;3.40;;
5460;SDS011;2753;49.196;8.286;2023-03-17T08:58:45;4.50;;;3.83;;
5460;SDS011;2753;49.196;8.286;2023-03-17T09:01:11;5.40;;;4.20;;
5460;SDS011;2753;49.196;8.286;2023-03-17T09:03:38;11.00;;;3.57;;
5460;SDS011;2753;49.196;8.286;2023-03-17T09:06:05;7.07;;;3.90;;
5460;SDS011;2753;49.196;8.286;2023-03-17T09:08:32;5.60;;;4.20;;
5460;SDS011;2753;49.196;8.286;2023-03-17T09:10:59;9.17;;;4.00;;
5460;SDS011;2753;49.196;8.286;2023-03-17T09:13:27;9.60;;;3.70;;
5460;SDS011;2753;49.196;8.286;2023-03-17T09:15:53;9.60;;;4.90;;
5460;SDS011;2753;49.196;8.286;2023-03-17T09:18:20;3.70;;;3.13;;
5460;SDS011;2753;49.196;8.286;2023-03-17T09:20:46;5.83;;;3.57;;
5460;SDS011;2753;49.196;8.286;2023-03-17T09:23:12;7.50;;;4.07;;
5460;SDS011;2753;49.196;8.286;2023-03-17T09:25:38;4.97;;;3.10;;
5460;SDS011;2753;49.196;8.286;2023-03-17T09:28:06;3.33;;;3.03;;
5460;SDS011;2753;49.196;8.286;2023-03-17T09:30:33;4.70;;;3.70;;
5460;SDS011;2753;49.196;8.286;2023-03-17T09:32:58;6.30;;;3.30;;
5460;SDS011;2753;49.196;8.286;2023-03-17T09:35:25;8.93;;;3.10;;
5460;SDS011;2753;49.196;8.286;2023-03-17T09:37:52;7.80;;;2.57;;
5460;SDS011;2753;49.196;8.286;2023-03-17T09:40:18;3.67;;;3.07;;
5460;SDS011;2753;49.196;8.286;2023-03-17T09:42:58;2.77;;;2.47;;
5460;SDS011;2753;49.196;8.286;2023-03-17T09:45:36;5.77;;;3.63;;
5460;SDS011;2753;49.196;8.286;2023-03-17T09:50:57;5.07;;;2.73;;
5460;SDS011;2753;49.196;8.286;2023-03-17T09:53:29;3.10;;;2.80;;
5460;SDS011;2753;49.196;8.286;2023-03-17T09:56:20;4.97;;;3.60;;
5460;SDS011;2753;49.196;8.286;2023-03-17T09:58:51;7.73;;;4.60;;
5460;SDS011;2753;49.196;8.286;2023-03-17T10:01:28;5.70;;;3.80;;
5460;SDS011;2753;49.196;8.286;2023-03-17T10:03:54;3.70;;;3.17;;
5460;SDS011;2753;49.196;8.286;2023-03-17T10:09:04;5.40;;;3.80;;
5460;SDS011;2753;49.196;8.286;2023-03-17T10:11:43;6.83;;;4.20;;
5460;SDS011;2753;49.196;8.286;2023-03-17T10:17:09;30.57;;;4.37;;
5460;SDS011;2753;49.196;8.286;2023-03-17T10:22:27;4.37;;;3.70;;
5460;SDS011;2753;49.196;8.286;2023-03-17T10:25:14;5.93;;;4.10;;
5460;SDS011;2753;49.196;8.286;2023-03-17T10:27:53;6.07;;;3.90;;
5460;SDS011;2753;49.196;8.286;2023-03-17T10:30:26;9.90;;;6.03;;
5460;SDS011;2753;49.196;8.286;2023-03-17T10:32:54;8.10;;;4.47;;
5460;SDS011;2753;49.196;8.286;2023-03-17T10:35:24;11.87;;;6.10;;
5460;SDS011;2753;49.196;8.286;2023-03-17T10:37:50;10.20;;;5.50;;
5460;SDS011;2753;49.196;8.286;2023-03-17T10:40:23;5.80;;;4.50;;
5460;SDS011;2753;49.196;8.286;2023-03-17T10:42:52;7.43;;;5.43;;
5460;SDS011;2753;49.196;8.286;2023-03-17T10:45:28;8.20;;;4.90;;
5460;SDS011;2753;49.196;8.286;2023-03-17T10:47:57;11.10;;;6.47;;
5460;SDS011;2753;49.196;8.286;2023-03-17T10:50:25;9.03;;;5.23;;
5460;SDS011;2753;49.196;8.286;2023-03-17T10:52:57;9.47;;;5.80;;
5460;SDS011;2753;49.196;8.286;2023-03-17T10:55:48;13.87;;;6.20;;
5460;SDS011;2753;49.196;8.286;2023-03-17T10:58:20;7.77;;;5.43;;
5460;SDS011;2753;49.196;8.286;2023-03-17T11:00:59;10.70;;;5.60;;
5460;SDS011;2753;49.196;8.286;2023-03-17T11:03:30;10.83;;;6.27;;
5460;SDS011;2753;49.196;8.286;2023-03-17T11:06:10;8.00;;;5.20;;
5460;SDS011;2753;49.196;8.286;2023-03-17T11:08:39;8.40;;;5.57;;
5460;SDS011;2753;49.196;8.286;2023-03-17T11:11:47;10.00;;;4.67;;
5460;SDS011;2753;49.196;8.286;2023-03-17T11:14:25;11.33;;;6.20;;
5460;SDS011;2753;49.196;8.286;2023-03-17T11:19:18;14.57;;;6.90;;
5460;SDS011;2753;49.196;8.286;2023-03-17T11:24:18;14.87;;;6.20;;
5460;SDS011;2753;49.196;8.286;2023-03-17T11:29:37;18.17;;;6.97;;
5460;SDS011;2753;49.196;8.286;2023-03-17T11:32:27;9.70;;;6.23;;
5460;SDS011;2753;49.196;8.286;2023-03-17T11:35:05;10.60;;;5.83;;
5460;SDS011;2753;49.196;8.286;2023-03-17T11:49:54;11.80;;;5.80;;
5460;SDS011;2753;49.196;8.286;2023-03-17T11:52:31;17.10;;;6.07;;
5460;SDS011;2753;49.196;8.286;2023-03-17T11:55:11;7.90;;;5.90;;
5460;SDS011;2753;49.196;8.286;2023-03-17T11:58:06;13.43;;;5.70;;
5460;SDS011;2753;49.196;8.286;2023-03-17T12:00:58;9.83;;;5.80;;
5460;SDS011;2753;49.196;8.286;2023-03-17T12:06:41;13.80;;;7.50;;
5460;SDS011;2753;49.196;8.286;2023-03-17T12:09:15;14.83;;;6.50;;
5460;SDS011;2753;49.196;8.286;2023-03-17T12:11:57;7.03;;;5.80;;
5460;SDS011;2753;49.196;8.286;2023-03-17T12:22:54;15.20;;;7.60;;
5460;SDS011;2753;49.196;8.286;2023-03-17T12:25:55;12.50;;;6.20;;
5460;SDS011;2753;49.196;8.286;2023-03-17T12:28:34;8.60;;;6.50;;
5460;SDS011;2753;49.196;8.286;2023-03-17T12:31:05;11.37;;;6.93;;
5460;SDS011;2753;49.196;8.286;2023-03-17T12:33:42;11.57;;;5.97;;
5460;SDS011;2753;49.196;8.286;2023-03-17T12:36:13;11.30;;;6.17;;
5460;SDS011;2753;49.196;8.286;2023-03-17T12:55:06;20.53;;;9.00;;
5460;SDS011;2753;49.196;8.286;2023-03-17T12:57:38;16.67;;;6.80;;
5460;SDS011;2753;49.196;8.286;2023-03-17T13:02:50;14.80;;;4.57;;
5460;SDS011;2753;49.196;8.286;2023-03-17T13:05:31;16.23;;;6.93;;
5460;SDS011;2753;49.196;8.286;2023-03-17T13:08:01;23.30;;;10.40;;
5460;SDS011;2753;49.196;8.286;2023-03-17T13:13:04;14.40;;;5.80;;
5460;SDS011;2753;49.196;8.286;2023-03-17T13:20:44;7.80;;;4.27;;
5460;SDS011;2753;49.196;8.286;2023-03-17T13:29:26;6.33;;;4.17;;
5460;SDS011;2753;49.196;8.286;2023-03-17T13:34:44;8.60;;;5.07;;
5460;SDS011;2753;49.196;8.286;2023-03-17T13:40:12;14.53;;;5.33;;
5460;SDS011;2753;49.196;8.286;2023-03-17T13:50:58;19.00;;;5.37;;
5460;SDS011;2753;49.196;8.286;2023-03-17T13:53:27;5.10;;;3.80;;
5460;SDS011;2753;49.196;8.286;2023-03-17T13:56:03;7.30;;;3.67;;
5460;SDS011;2753;49.196;8.286;2023-03-17T13:58:52;9.27;;;3.70;;
5460;SDS011;2753;49.196;8.286;2023-03-17T14:01:17;6.17;;;3.77;;
5460;SDS011;2753;49.196;8.286;2023-03-17T14:03:46;15.63;;;5.27;;
5460;SDS011;2753;49.196;8.286;2023-03-17T14:06:13;25.50;;;8.17;;
5460;SDS011;2753;49.196;8.286;2023-03-17T14:08:47;52.53;;;11.50;;
5460;SDS011;2753;49.196;8.286;2023-03-17T14:11:18;8.43;;;3.67;;
5460;SDS011;2753;49.196;8.286;2023-03-17T14:16:42;7.07;;;4.10;;
5460;SDS011;2753;49.196;8.286;2023-03-17T14:19:22;15.97;;;8.17;;
5460;SDS011;2753;49.196;8.286;2023-03-17T14:21:53;6.80;;;4.43;;
5460;SDS011;2753;49.196;8.286;2023-03-17T14:24:29;4.83;;;3.57;;
5460;SDS011;2753;49.196;8.286;2023-03-17T14:26:57;7.20;;;4.30;;
5460;SDS011;2753;49.196;8.286;2023-03-17T14:29:28;6.70;;;4.50;;
5460;SDS011;2753;49.196;8.286;2023-03-17T14:32:09;9.53;;;4.87;;
5460;SDS011;2753;49.196;8.286;2023-03-17T14:34:41;8.97;;;3.67;;
5460;SDS011;2753;49.196;8.286;2023-03-17T14:37:16;4.80;;;3.80;;
5460;SDS011;2753;49.196;8.286;2023-03-17T14:39:46;4.67;;;3.03;;
5460;SDS011;2753;49.196;8.286;2023-03-17T14:42:19;5.10;;;2.80;;
5460;SDS011;2753;49.196;8.286;2023-03-17T14:45:06;5.03;;;3.13;;
5460;SDS011;2753;49.196;8.286;2023-03-17T14:47:39;7.47;;;3.00;;
5460;SDS011;2753;49.196;8.286;2023-03-17T14:50:12;3.77;;;3.00;;
5460;SDS011;2753;49.196;8.286;2023-03-17T14:52:53;9.33;;;2.67;;
5460;SDS011;2753;49.196;8.286;2023-03-17T14:55:21;3.53;;;2.70;;
5460;SDS011;2753;49.196;8.286;2023-03-17T14:58:07;5.40;;;3.07;;
5460;SDS011;2753;49.196;8.286;2023-03-17T15:00:44;5.60;;;3.07;;
5460;SDS011;2753;49.196;8.286;2023-03-17T15:03:20;4.57;;;2.50;;
5460;SDS011;2753;49.196;8.286;2023-03-17T15:05:47;13.80;;;2.97;;
5460;SDS011;2753;49.196;8.286;2023-03-17T15:11:05;4.33;;;2.10;;
5460;SDS011;2753;49.196;8.286;2023-03-17T15:13:32;9.37;;;2.30;;
5460;SDS011;2753;49.196;8.286;2023-03-17T15:18:41;4.03;;;2.50;;
5460;SDS011;2753;49.196;8.286;2023-03-17T15:21:20;7.73;;;3.27;;
5460;SDS011;2753;49.196;8.286;2023-03-17T15:23:53;3.80;;;2.83;;
5460;SDS011;2753;49.196;8.286;2023-03-17T15:26:20;5.03;;;2.90;;
5460;SDS011;2753;49.196;8.286;2023-03-17T15:28:47;3.93;;;2.70;;
5460;SDS011;2753;49.196;8.286;2023-03-17T15:31:13;3.00;;;2.70;;
5460;SDS011;2753;49.196;8.286;2023-03-17T15:33:39;4.70;;;3.50;;
5460;SDS011;2753;49.196;8.286;2023-03-17T15:36:06;6.40;;;3.67;;
5460;SDS011;2753;49.196;8.286;2023-03-17T15:38:37;9.90;;;5.30;;
5460;SDS011;2753;49.196;8.286;2023-03-17T15:41:04;10.60;;;4.90;;
5460;SDS011;2753;49.196;8.286;2023-03-17T15:43:30;11.17;;;4.77;;
5460;SDS011;2753;49.196;8.286;2023-03-17T15:46:00;17.07;;;6.27;;
5460;SDS011;2753;49.196;8.286;2023-03-17T15:48:29;12.70;;;6.80;;
5460;SDS011;2753;49.196;8.286;2023-03-17T15:50:57;16.23;;;8.20;;
5460;SDS011;2753;49.196;8.286;2023-03-17T15:53:25;10.67;;;6.90;;
5460;SDS011;2753;49.196;8.286;2023-03-17T15:55:51;11.57;;;4.90;;
5460;SDS011;2753;49.196;8.286;2023-03-17T15:58:17;7.70;;;4.13;;
5460;SDS011;2753;49.196;8.286;2023-03-17T16:00:43;5.63;;;3.70;;
5460;SDS011;2753;49.196;8.286;2023-03-17T16:03:22;8.47;;;4.10;;
5460;SDS011;2753;49.196;8.286;2023-03-17T16:05:49;7.73;;;4.60;;
5460;SDS011;2753;49.196;8.286;2023-03-17T16:08:15;7.37;;;4.47;;
5460;SDS011;2753;49.196;8.286;2023-03-17T16:10:42;12.77;;;5.63;;
5460;SDS011;2753;49.196;8.286;2023-03-17T16:13:09;9.53;;;5.80;;
5460;SDS011;2753;49.196;8.286;2023-03-17T16:15:39;8.80;;;5.40;;
5460;SDS011;2753;49.196;8.286;2023-03-17T16:18:13;8.93;;;5.70;;
5460;SDS011;2753;49.196;8.286;2023-03-17T16:20:42;8.73;;;4.47;;
5460;SDS011;2753;49.196;8.286;2023-03-17T16:25:39;7.03;;;5.00;;
5460;SDS011;2753;49.196;8.286;2023-03-17T16:28:12;8.17;;;5.33;;
5460;SDS011;2753;49.196;8.286;2023-03-17T16:30:41;12.90;;;5.43;;
5460;SDS011;2753;49.196;8.286;2023-03-17T16:33:13;9.03;;;5.07;;
5460;SDS011;2753;49.196;8.286;2023-03-17T16:36:00;14.70;;;5.67;;
5460;SDS011;2753;49.196;8.286;2023-03-17T16:38:27;12.70;;;6.23;;
5460;SDS011;2753;49.196;8.286;2023-03-17T16:40:57;14.30;;;5.80;;
5460;SDS011;2753;49.196;8.286;2023-03-17T16:43:29;13.30;;;5.77;;
5460;SDS011;2753;49.196;8.286;2023-03-17T16:45:57;13.27;;;6.93;;
5460;SDS011;2753;49.196;8.286;2023-03-17T16:48:25;17.00;;;8.67;;
5460;SDS011;2753;49.196;8.286;2023-03-17T16:50:51;13.87;;;8.77;;
5460;SDS011;2753;49.196;8.286;2023-03-17T16:53:17;22.50;;;10.07;;
5460;SDS011;2753;49.196;8.286;2023-03-17T16:55:42;28.97;;;11.33;;
5460;SDS011;2753;49.196;8.286;2023-03-17T16:58:13;23.63;;;9.70;;
5460;SDS011;2753;49.196;8.286;2023-03-17T17:00:45;15.30;;;8.57;;
5460;SDS011;2753;49.196;8.286;2023-03-17T17:03:12;16.20;;;8.67;;
5460;SDS011;2753;49.196;8.286;2023-03-17T17:05:37;11.57;;;6.43;;
5460;SDS011;2753;49.196;8.286;2023-03-17T17:08:03;10.73;;;6.90;;